sensor_id;sensor_type;location;lat;lon;timestamp;temperature;humidity
22984;DHT22;11658;48.908;9.140;2023-04-03T03:02:00;3.20;99.90
22984;DHT22;11658;48.908;9.140;2023-04-03T03:04:26;3.10;99.90
22984;DHT22;11658;48.908;9.140;2023-04-03T03:06:51;3.10;99.90
22984;DHT22;11658;48.908;9.140;2023-04-03T03:09:17;3.20;99.90
22984;DHT22;11658;48.908;9.140;2023-04-03T03:11:43;3.10;99.90
22984;DHT22;11658;48.908;9.140;2023-04-03T03:14:09;3.10;99.90
22984;DHT22;11658;48.908;9.140;2023-04-03T03:16:34;3.10;99.90
22984;DHT22;11658;48.908;9.140;2023-04-03T03:19:00;3.10;99.90
22984;DHT22;11658;48.908;9.140;2023-04-03T03:21:26;3.10;99.90
22984;DHT22;11658;48.908;9.140;2023-04-03T03:23:51;3.10;99.90
22984;DHT22;11658;48.908;9.140;2023-04-03T03:26:17;3.20;99.90
22984;DHT22;11658;48.908;9.140;2023-04-03T03:28:43;3.20;99.90
22984;DHT22;11658;48.908;9.140;2023-04-03T03:31:09;3.30;99.90
22984;DHT22;11658;48.908;9.140;2023-04-03T03:33:35;3.30;99.90
22984;DHT22;11658;48.908;9.140;2023-04-03T03:36:01;3.30;99.90
22984;DHT22;11658;48.908;9.140;2023-04-03T03:38:27;3.30;99.90
22984;DHT22;11658;48.908;9.140;2023-04-03T03:40:52;3.30;99.90
22984;DHT22;11658;48.908;9.140;2023-04-03T03:43:18;3.30;99.90
22984;DHT22;11658;48.908;9.140;2023-04-03T03:45:44;3.30;99.90
22984;DHT22;11658;48.908;9.140;2023-04-03T03:48:11;3.30;99.90
22984;DHT22;11658;48.908;9.140;2023-04-03T03:50:37;3.40;99.90
22984;DHT22;11658;48.908;9.140;2023-04-03T03:53:02;3.40;99.90
22984;DHT22;11658;48.908;9.140;2023-04-03T03:55:28;3.40;99.90
22984;DHT22;11658;48.908;9.140;2023-04-03T03:57:54;3.40;99.90
22984;DHT22;11658;48.908;9.140;2023-04-03T04:00:19;3.40;99.90
22984;DHT22;11658;48.908;9.140;2023-04-03T04:02:45;3.40;99.90
22984;DHT22;11658;48.908;9.140;2023-04-03T04:05:11;3.50;99.90
22984;DHT22;11658;48.908;9.140;2023-04-03T04:07:36;3.40;99.90
22984;DHT22;11658;48.908;9.140;2023-04-03T04:10:02;3.50;99.90
22984;DHT22;11658;48.908;9.140;2023-04-03T04:12:28;3.60;99.90
22984;DHT22;11658;48.908;9.140;2023-04-03T04:14:54;3.60;99.90
22984;DHT22;11658;48.908;9.140;2023-04-03T04:17:19;3.50;99.90
22984;DHT22;11658;48.908;9.140;2023-04-03T04:19:45;3.50;99.90
22984;DHT22;11658;48.908;9.140;2023-04-03T04:22:11;3.50;99.90
22984;DHT22;11658;48.908;9.140;2023-04-03T04:24:37;3.50;99.90
22984;DHT22;11658;48.908;9.140;2023-04-03T04:27:02;3.60;99.90
22984;DHT22;11658;48.908;9.140;2023-04-03T04:29:28;3.60;99.90
22984;DHT22;11658;48.908;9.140;2023-04-03T04:31:53;3.60;99.90
22984;DHT22;11658;48.908;9.140;2023-04-03T04:34:19;3.50;99.90
22984;DHT22;11658;48.908;9.140;2023-04-03T04:36:45;3.50;99.90
22984;DHT22;11658;48.908;9.140;2023-04-03T04:39:10;3.60;99.90
22984;DHT22;11658;48.908;9.140;2023-04-03T04:41:36;3.60;99.90
22984;DHT22;11658;48.908;9.140;2023-04-03T04:44:02;3.60;99.90
22984;DHT22;11658;48.908;9.140;2023-04-03T04:46:27;3.60;99.90
22984;DHT22;11658;48.908;9.140;2023-04-03T04:48:53;3.50;99.90
22984;DHT22;11658;48.908;9.140;2023-04-03T04:51:18;3.60;99.90
22984;DHT22;11658;48.908;9.140;2023-04-03T04:53:44;3.50;99.90
22984;DHT22;11658;48.908;9.140;2023-04-03T04:56:10;3.50;99.90
22984;DHT22;11658;48.908;9.140;2023-04-03T04:58:36;3.40;99.90
22984;DHT22;11658;48.908;9.140;2023-04-03T05:01:03;3.40;99.90
22984;DHT22;11658;48.908;9.140;2023-04-03T05:03:29;3.40;99.90
22984;DHT22;11658;48.908;9.140;2023-04-03T05:05:55;3.30;99.90
22984;DHT22;11658;48.908;9.140;2023-04-03T05:08:20;3.30;99.90
22984;DHT22;11658;48.908;9.140;2023-04-03T05:10:46;3.20;99.90
22984;DHT22;11658;48.908;9.140;2023-04-03T05:13:13;3.20;99.90
22984;DHT22;11658;48.908;9.140;2023-04-03T05:15:38;3.10;99.90
22984;DHT22;11658;48.908;9.140;2023-04-03T05:18:04;3.00;99.90
22984;DHT22;11658;48.908;9.140;2023-04-03T05:20:31;4.60;99.90
22984;DHT22;11658;48.908;9.140;2023-04-03T05:22:56;3.00;99.90
22984;DHT22;11658;48.908;9.140;2023-04-03T05:25:22;3.10;99.90
22984;DHT22;11658;48.908;9.140;2023-04-03T05:27:48;3.10;99.90
22984;DHT22;11658;48.908;9.140;2023-04-03T05:30:13;3.10;99.90
22984;DHT22;11658;48.908;9.140;2023-04-03T05:32:39;3.00;99.90
22984;DHT22;11658;48.908;9.140;2023-04-03T05:35:06;3.10;99.90
22984;DHT22;11658;48.908;9.140;2023-04-03T05:37:33;3.10;99.90
22984;DHT22;11658;48.908;9.140;2023-04-03T05:39:58;3.10;99.90
22984;DHT22;11658;48.908;9.140;2023-04-03T05:42:24;3.20;99.90
22984;DHT22;11658;48.908;9.140;2023-04-03T05:44:52;3.20;99.90
22984;DHT22;11658;48.908;9.140;2023-04-03T05:47:19;3.20;99.90
22984;DHT22;11658;48.908;9.140;2023-04-03T05:49:44;3.10;99.90
22984;DHT22;11658;48.908;9.140;2023-04-03T05:52:37;3.00;99.90
22984;DHT22;11658;48.908;9.140;2023-04-03T05:55:04;3.10;99.90
22984;DHT22;11658;48.908;9.140;2023-04-03T05:57:30;3.10;99.90
22984;DHT22;11658;48.908;9.140;2023-04-03T05:59:56;3.10;99.90
22984;DHT22;11658;48.908;9.140;2023-04-03T06:02:23;3.20;99.90
22984;DHT22;11658;48.908;9.140;2023-04-03T06:04:49;3.20;99.90
22984;DHT22;11658;48.908;9.140;2023-04-03T06:07:17;3.30;99.90
22984;DHT22;11658;48.908;9.140;2023-04-03T06:09:43;3.30;99.90
22984;DHT22;11658;48.908;9.140;2023-04-03T06:12:09;3.30;99.90
22984;DHT22;11658;48.908;9.140;2023-04-03T06:14:35;3.20;99.90
22984;DHT22;11658;48.908;9.140;2023-04-03T06:17:01;3.30;99.90
22984;DHT22;11658;48.908;9.140;2023-04-03T06:19:27;3.40;99.90
22984;DHT22;11658;48.908;9.140;2023-04-03T06:21:53;3.30;99.90
22984;DHT22;11658;48.908;9.140;2023-04-03T06:24:19;3.30;99.90
22984;DHT22;11658;48.908;9.140;2023-04-03T06:26:47;3.40;99.90
22984;DHT22;11658;48.908;9.140;2023-04-03T06:29:12;3.30;99.90
22984;DHT22;11658;48.908;9.140;2023-04-03T06:31:38;3.40;99.90
22984;DHT22;11658;48.908;9.140;2023-04-03T06:34:04;3.50;99.90
22984;DHT22;11658;48.908;9.140;2023-04-03T06:36:29;3.50;99.90
22984;DHT22;11658;48.908;9.140;2023-04-03T06:38:55;3.60;99.90
22984;DHT22;11658;48.908;9.140;2023-04-03T06:41:21;3.70;99.90
22984;DHT22;11658;48.908;9.140;2023-04-03T06:43:47;3.70;99.90
22984;DHT22;11658;48.908;9.140;2023-04-03T06:46:17;3.80;99.90
22984;DHT22;11658;48.908;9.140;2023-04-03T06:48:44;4.00;99.90
22984;DHT22;11658;48.908;9.140;2023-04-03T06:53:48;4.20;99.90
22984;DHT22;11658;48.908;9.140;2023-04-03T06:56:14;4.40;99.90
22984;DHT22;11658;48.908;9.140;2023-04-03T06:58:40;4.30;99.90
22984;DHT22;11658;48.908;9.140;2023-04-03T07:01:07;4.30;99.90
22984;DHT22;11658;48.908;9.140;2023-04-03T07:03:33;4.30;99.90
22984;DHT22;11658;48.908;9.140;2023-04-03T07:05:59;4.40;99.90
22984;DHT22;11658;48.908;9.140;2023-04-03T07:08:24;4.40;99.90
22984;DHT22;11658;48.908;9.140;2023-04-03T07:10:51;4.60;99.90
22984;DHT22;11658;48.908;9.140;2023-04-03T07:13:17;4.70;99.90
22984;DHT22;11658;48.908;9.140;2023-04-03T07:15:42;4.90;99.90
22984;DHT22;11658;48.908;9.140;2023-04-03T07:18:08;5.00;99.90
22984;DHT22;11658;48.908;9.140;2023-04-03T07:20:33;4.80;99.90
22984;DHT22;11658;48.908;9.140;2023-04-03T07:22:59;4.90;99.90
22984;DHT22;11658;48.908;9.140;2023-04-03T07:25:27;5.00;99.90
22984;DHT22;11658;48.908;9.140;2023-04-03T07:27:53;5.10;99.90
22984;DHT22;11658;48.908;9.140;2023-04-03T07:30:20;5.30;99.90
22984;DHT22;11658;48.908;9.140;2023-04-03T07:32:46;5.40;99.90
22984;DHT22;11658;48.908;9.140;2023-04-03T07:35:12;5.40;99.90
22984;DHT22;11658;48.908;9.140;2023-04-03T07:37:38;5.50;99.90
22984;DHT22;11658;48.908;9.140;2023-04-03T07:40:04;5.50;99.90
22984;DHT22;11658;48.908;9.140;2023-04-03T07:42:30;5.60;99.90
22984;DHT22;11658;48.908;9.140;2023-04-03T07:44:55;5.80;99.90
22984;DHT22;11658;48.908;9.140;2023-04-03T07:47:22;6.00;99.90
22984;DHT22;11658;48.908;9.140;2023-04-03T07:49:47;6.20;99.90
22984;DHT22;11658;48.908;9.140;2023-04-03T07:52:13;6.30;99.90
22984;DHT22;11658;48.908;9.140;2023-04-03T07:54:41;6.00;99.90
22984;DHT22;11658;48.908;9.140;2023-04-03T07:57:06;6.10;99.90
22984;DHT22;11658;48.908;9.140;2023-04-03T07:59:32;6.10;99.90
22984;DHT22;11658;48.908;9.140;2023-04-03T08:01:58;6.20;99.90
22984;DHT22;11658;48.908;9.140;2023-04-03T08:04:23;6.50;99.90
22984;DHT22;11658;48.908;9.140;2023-04-03T08:06:50;6.70;99.90
22984;DHT22;11658;48.908;9.140;2023-04-03T08:09:16;6.40;99.90
22984;DHT22;11658;48.908;9.140;2023-04-03T08:11:42;6.20;99.90
22984;DHT22;11658;48.908;9.140;2023-04-03T08:14:08;6.20;99.90
22984;DHT22;11658;48.908;9.140;2023-04-03T08:16:36;6.50;99.90
22984;DHT22;11658;48.908;9.140;2023-04-03T08:19:01;6.60;99.90
22984;DHT22;11658;48.908;9.140;2023-04-03T08:21:27;6.50;99.90
22984;DHT22;11658;48.908;9.140;2023-04-03T08:23:52;6.60;99.90
22984;DHT22;11658;48.908;9.140;2023-04-03T08:26:20;6.60;99.90
22984;DHT22;11658;48.908;9.140;2023-04-03T08:28:47;6.20;99.90
22984;DHT22;11658;48.908;9.140;2023-04-03T08:31:15;6.10;99.90
22984;DHT22;11658;48.908;9.140;2023-04-03T08:33:42;6.40;99.90
22984;DHT22;11658;48.908;9.140;2023-04-03T08:36:22;6.40;99.90
22984;DHT22;11658;48.908;9.140;2023-04-03T08:38:49;6.30;99.90
22984;DHT22;11658;48.908;9.140;2023-04-03T08:41:40;6.10;99.90
22984;DHT22;11658;48.908;9.140;2023-04-03T08:51:55;6.10;99.90
22984;DHT22;11658;48.908;9.140;2023-04-03T08:54:29;6.30;99.90
22984;DHT22;11658;48.908;9.140;2023-04-03T08:56:56;6.30;99.90
22984;DHT22;11658;48.908;9.140;2023-04-03T08:59:28;6.50;99.90
22984;DHT22;11658;48.908;9.140;2023-04-03T09:01:56;6.50;99.90
22984;DHT22;11658;48.908;9.140;2023-04-03T09:04:24;6.50;99.90
22984;DHT22;11658;48.908;9.140;2023-04-03T09:06:58;6.20;99.90
22984;DHT22;11658;48.908;9.140;2023-04-03T09:09:41;6.10;99.90
22984;DHT22;11658;48.908;9.140;2023-04-03T09:12:25;6.10;99.90
22984;DHT22;11658;48.908;9.140;2023-04-03T09:20:44;6.50;99.90
22984;DHT22;11658;48.908;9.140;2023-04-03T09:25:40;6.40;99.90
22984;DHT22;11658;48.908;9.140;2023-04-03T09:28:06;6.60;99.90
22984;DHT22;11658;48.908;9.140;2023-04-03T09:30:35;6.60;99.90
22984;DHT22;11658;48.908;9.140;2023-04-03T09:33:00;6.50;99.90
22984;DHT22;11658;48.908;9.140;2023-04-03T09:35:30;6.60;99.90
22984;DHT22;11658;48.908;9.140;2023-04-03T09:40:38;6.80;99.90
22984;DHT22;11658;48.908;9.140;2023-04-03T09:43:31;7.10;99.90
22984;DHT22;11658;48.908;9.140;2023-04-03T09:49:09;7.20;99.90
22984;DHT22;11658;48.908;9.140;2023-04-03T09:51:37;7.10;99.90
22984;DHT22;11658;48.908;9.140;2023-04-03T09:54:30;7.00;99.90
22984;DHT22;11658;48.908;9.140;2023-04-03T09:56:59;7.20;99.90
22984;DHT22;11658;48.908;9.140;2023-04-03T09:59:25;7.40;99.90
22984;DHT22;11658;48.908;9.140;2023-04-03T10:02:00;7.10;99.90
22984;DHT22;11658;48.908;9.140;2023-04-03T10:04:38;6.90;99.90
22984;DHT22;11658;48.908;9.140;2023-04-03T10:07:29;7.10;99.90
22984;DHT22;11658;48.908;9.140;2023-04-03T10:10:16;6.90;99.90
22984;DHT22;11658;48.908;9.140;2023-04-03T10:12:43;7.00;99.90
22984;DHT22;11658;48.908;9.140;2023-04-03T10:15:16;6.80;99.90
22984;DHT22;11658;48.908;9.140;2023-04-03T10:28:02;7.00;99.90
22984;DHT22;11658;48.908;9.140;2023-04-03T10:33:19;7.30;99.90
22984;DHT22;11658;48.908;9.140;2023-04-03T10:36:10;7.50;99.90
22984;DHT22;11658;48.908;9.140;2023-04-03T10:56:33;7.70;99.90
22984;DHT22;11658;48.908;9.140;2023-04-03T11:01:52;7.80;99.90
22984;DHT22;11658;48.908;9.140;2023-04-03T11:04:20;7.90;99.90
22984;DHT22;11658;48.908;9.140;2023-04-03T11:06:51;7.60;99.90
22984;DHT22;11658;48.908;9.140;2023-04-03T11:09:27;7.40;99.90
22984;DHT22;11658;48.908;9.140;2023-04-03T11:12:00;7.60;99.90
22984;DHT22;11658;48.908;9.140;2023-04-03T11:14:35;7.60;99.90
22984;DHT22;11658;48.908;9.140;2023-04-03T11:17:11;8.00;99.90
22984;DHT22;11658;48.908;9.140;2023-04-03T11:22:30;7.80;99.90
22984;DHT22;11658;48.908;9.140;2023-04-03T11:27:46;7.40;99.90
22984;DHT22;11658;48.908;9.140;2023-04-03T11:30:22;7.10;99.90
22984;DHT22;11658;48.908;9.140;2023-04-03T11:32:52;7.10;99.90
22984;DHT22;11658;48.908;9.140;2023-04-03T11:35:20;7.00;99.90
22984;DHT22;11658;48.908;9.140;2023-04-03T11:37:49;7.10;99.90
22984;DHT22;11658;48.908;9.140;2023-04-03T11:42:47;6.80;99.90
22984;DHT22;11658;48.908;9.140;2023-04-03T11:47:52;7.20;99.90
22984;DHT22;11658;48.908;9.140;2023-04-03T12:05:55;7.40;99.90
22984;DHT22;11658;48.908;9.140;2023-04-03T12:35:00;7.80;99.90
22984;DHT22;11658;48.908;9.140;2023-04-03T12:37:44;7.50;99.90
22984;DHT22;11658;48.908;9.140;2023-04-03T12:48:59;7.70;99.90
22984;DHT22;11658;48.908;9.140;2023-04-03T12:51:28;7.70;99.90
22984;DHT22;11658;48.908;9.140;2023-04-03T12:54:01;7.80;99.90
22984;DHT22;11658;48.908;9.140;2023-04-03T12:56:30;8.00;99.90
22984;DHT22;11658;48.908;9.140;2023-04-03T12:59:18;7.70;99.90
22984;DHT22;11658;48.908;9.140;2023-04-03T13:01:44;7.30;99.90
22984;DHT22;11658;48.908;9.140;2023-04-03T13:04:18;7.30;99.90
22984;DHT22;11658;48.908;9.140;2023-04-03T13:06:44;7.50;99.90
22984;DHT22;11658;48.908;9.140;2023-04-03T13:11:56;7.90;99.90
22984;DHT22;11658;48.908;9.140;2023-04-03T13:14:25;8.10;99.90
22984;DHT22;11658;48.908;9.140;2023-04-03T13:17:14;8.00;99.90
22984;DHT22;11658;48.908;9.140;2023-04-03T13:19:40;7.90;99.90
22984;DHT22;11658;48.908;9.140;2023-04-03T13:22:29;7.90;99.90
22984;DHT22;11658;48.908;9.140;2023-04-03T13:24:58;8.10;99.90
22984;DHT22;11658;48.908;9.140;2023-04-03T13:27:26;8.40;99.90
22984;DHT22;11658;48.908;9.140;2023-04-03T13:29:54;8.60;99.90
22984;DHT22;11658;48.908;9.140;2023-04-03T13:32:23;8.50;99.90
22984;DHT22;11658;48.908;9.140;2023-04-03T13:34:50;8.70;99.90
22984;DHT22;11658;48.908;9.140;2023-04-03T13:37:33;8.70;99.90
22984;DHT22;11658;48.908;9.140;2023-04-03T13:42:35;8.70;99.90
22984;DHT22;11658;48.908;9.140;2023-04-03T13:45:22;8.60;99.90
22984;DHT22;11658;48.908;9.140;2023-04-03T13:47:51;8.70;99.90
22984;DHT22;11658;48.908;9.140;2023-04-03T13:50:21;8.70;99.90
22984;DHT22;11658;48.908;9.140;2023-04-03T13:55:32;8.60;99.90
22984;DHT22;11658;48.908;9.140;2023-04-03T13:58:20;8.50;99.90
22984;DHT22;11658;48.908;9.140;2023-04-03T14:00:51;8.20;99.90
22984;DHT22;11658;48.908;9.140;2023-04-03T14:03:28;8.00;99.90
22984;DHT22;11658;48.908;9.140;2023-04-03T14:05:54;7.90;99.90
22984;DHT22;11658;48.908;9.140;2023-04-03T14:08:20;8.00;99.90
22984;DHT22;11658;48.908;9.140;2023-04-03T14:10:46;8.20;99.90
22984;DHT22;11658;48.908;9.140;2023-04-03T14:13:17;8.20;99.90
22984;DHT22;11658;48.908;9.140;2023-04-03T14:15:44;8.10;99.90
22984;DHT22;11658;48.908;9.140;2023-04-03T14:18:12;8.10;99.90
22984;DHT22;11658;48.908;9.140;2023-04-03T14:20:38;8.20;99.90
22984;DHT22;11658;48.908;9.140;2023-04-03T14:23:04;8.20;99.90
22984;DHT22;11658;48.908;9.140;2023-04-03T14:25:29;8.50;99.90
22984;DHT22;11658;48.908;9.140;2023-04-03T14:27:55;8.60;99.90
22984;DHT22;11658;48.908;9.140;2023-04-03T14:30:24;8.60;99.90
22984;DHT22;11658;48.908;9.140;2023-04-03T14:32:50;8.40;99.90
22984;DHT22;11658;48.908;9.140;2023-04-03T14:35:17;8.30;99.90
22984;DHT22;11658;48.908;9.140;2023-04-03T14:37:44;8.20;99.90
22984;DHT22;11658;48.908;9.140;2023-04-03T14:40:17;8.20;99.90
22984;DHT22;11658;48.908;9.140;2023-04-03T14:42:43;8.30;99.90
22984;DHT22;11658;48.908;9.140;2023-04-03T14:45:11;8.40;99.90
22984;DHT22;11658;48.908;9.140;2023-04-03T14:47:47;8.40;99.90
22984;DHT22;11658;48.908;9.140;2023-04-03T14:50:19;8.40;99.90
22984;DHT22;11658;48.908;9.140;2023-04-03T14:52:50;8.30;99.90
22984;DHT22;11658;48.908;9.140;2023-04-03T14:55:18;8.10;99.90
22984;DHT22;11658;48.908;9.140;2023-04-03T14:57:45;8.10;99.90
22984;DHT22;11658;48.908;9.140;2023-04-03T15:00:14;8.00;99.90
22984;DHT22;11658;48.908;9.140;2023-04-03T15:02:41;7.90;99.90
22984;DHT22;11658;48.908;9.140;2023-04-03T15:05:08;7.60;99.90
22984;DHT22;11658;48.908;9.140;2023-04-03T15:07:57;7.60;99.90
22984;DHT22;11658;48.908;9.140;2023-04-03T15:10:26;7.40;99.90
22984;DHT22;11658;48.908;9.140;2023-04-03T15:12:53;7.60;99.90
22984;DHT22;11658;48.908;9.140;2023-04-03T15:15:20;7.70;99.90
22984;DHT22;11658;48.908;9.140;2023-04-03T15:17:50;7.80;99.90
22984;DHT22;11658;48.908;9.140;2023-04-03T15:20:18;8.00;99.90
22984;DHT22;11658;48.908;9.140;2023-04-03T15:22:44;8.10;99.90
22984;DHT22;11658;48.908;9.140;2023-04-03T15:25:11;7.90;99.90
22984;DHT22;11658;48.908;9.140;2023-04-03T15:27:37;7.80;99.90
22984;DHT22;11658;48.908;9.140;2023-04-03T15:30:05;7.50;99.90
22984;DHT22;11658;48.908;9.140;2023-04-03T15:32:31;7.40;99.90
22984;DHT22;11658;48.908;9.140;2023-04-03T15:34:58;7.20;99.90
22984;DHT22;11658;48.908;9.140;2023-04-03T15:37:24;7.20;99.90
22984;DHT22;11658;48.908;9.140;2023-04-03T15:39:50;7.20;99.90
22984;DHT22;11658;48.908;9.140;2023-04-03T15:42:16;7.20;99.90
22984;DHT22;11658;48.908;9.140;2023-04-03T15:44:41;7.20;99.90
22984;DHT22;11658;48.908;9.140;2023-04-03T15:47:07;7.30;99.90
22984;DHT22;11658;48.908;9.140;2023-04-03T15:49:33;7.30;99.90
22984;DHT22;11658;48.908;9.140;2023-04-03T15:51:59;7.40;99.90
22984;DHT22;11658;48.908;9.140;2023-04-03T15:54:25;7.60;99.90
22984;DHT22;11658;48.908;9.140;2023-04-03T15:56:52;7.80;99.90
22984;DHT22;11658;48.908;9.140;2023-04-03T15:59:18;8.00;99.90
22984;DHT22;11658;48.908;9.140;2023-04-03T16:01:44;8.00;99.90
22984;DHT22;11658;48.908;9.140;2023-04-03T16:04:10;7.90;99.90
22984;DHT22;11658;48.908;9.140;2023-04-03T16:06:37;7.60;99.90
22984;DHT22;11658;48.908;9.140;2023-04-03T16:09:03;7.40;99.90
22984;DHT22;11658;48.908;9.140;2023-04-03T16:11:29;7.40;99.90
22984;DHT22;11658;48.908;9.140;2023-04-03T16:13:55;7.30;99.90
22984;DHT22;11658;48.908;9.140;2023-04-03T16:16:21;7.20;99.90
22984;DHT22;11658;48.908;9.140;2023-04-03T16:18:47;7.20;99.90
22984;DHT22;11658;48.908;9.140;2023-04-03T16:21:15;7.20;99.90
22984;DHT22;11658;48.908;9.140;2023-04-03T16:23:41;7.10;99.90
22984;DHT22;11658;48.908;9.140;2023-04-03T16:26:07;7.10;99.90
22984;DHT22;11658;48.908;9.140;2023-04-03T16:28:33;7.30;99.90
22984;DHT22;11658;48.908;9.140;2023-04-03T16:31:01;7.40;99.90
22984;DHT22;11658;48.908;9.140;2023-04-03T16:33:27;7.40;99.90
22984;DHT22;11658;48.908;9.140;2023-04-03T16:35:53;7.30;99.90
22984;DHT22;11658;48.908;9.140;2023-04-03T16:38:19;7.10;99.90
22984;DHT22;11658;48.908;9.140;2023-04-03T16:40:46;6.90;99.90
22984;DHT22;11658;48.908;9.140;2023-04-03T16:43:11;6.80;99.90
22984;DHT22;11658;48.908;9.140;2023-04-03T16:45:37;6.60;99.90
22984;DHT22;11658;48.908;9.140;2023-04-03T16:48:03;6.50;99.90
22984;DHT22;11658;48.908;9.140;2023-04-03T16:50:29;6.50;99.90
22984;DHT22;11658;48.908;9.140;2023-04-03T16:52:54;6.50;99.90
22984;DHT22;11658;48.908;9.140;2023-04-03T16:55:20;6.40;99.90
22984;DHT22;11658;48.908;9.140;2023-04-03T16:57:46;6.40;99.90
22984;DHT22;11658;48.908;9.140;2023-04-03T17:00:12;6.40;99.90
22984;DHT22;11658;48.908;9.140;2023-04-03T17:02:39;6.40;99.90
22984;DHT22;11658;48.908;9.140;2023-04-03T17:05:06;6.80;99.90
22984;DHT22;11658;48.908;9.140;2023-04-03T17:07:32;7.30;99.90
22984;DHT22;11658;48.908;9.140;2023-04-03T17:09:58;7.60;99.90
22984;DHT22;11658;48.908;9.140;2023-04-03T17:12:24;7.50;99.90
22984;DHT22;11658;48.908;9.140;2023-04-03T17:14:49;7.10;99.90
22984;DHT22;11658;48.908;9.140;2023-04-03T17:17:18;6.90;99.90
22984;DHT22;11658;48.908;9.140;2023-04-03T17:19:45;6.70;99.90
22984;DHT22;11658;48.908;9.140;2023-04-03T17:22:10;6.60;99.90
22984;DHT22;11658;48.908;9.140;2023-04-03T17:24:36;6.70;99.90
22984;DHT22;11658;48.908;9.140;2023-04-03T17:27:02;6.60;99.90
22984;DHT22;11658;48.908;9.140;2023-04-03T17:29:28;6.30;99.90
22984;DHT22;11658;48.908;9.140;2023-04-03T17:31:54;6.20;99.90
22984;DHT22;11658;48.908;9.140;2023-04-03T17:34:19;6.10;99.90
22984;DHT22;11658;48.908;9.140;2023-04-03T17:36:46;6.00;99.90
22984;DHT22;11658;48.908;9.140;2023-04-03T17:39:11;5.90;99.90
22984;DHT22;11658;48.908;9.140;2023-04-03T17:41:37;5.80;99.90
22984;DHT22;11658;48.908;9.140;2023-04-03T17:44:03;5.70;99.90
22984;DHT22;11658;48.908;9.140;2023-04-03T17:46:29;5.60;99.90
22984;DHT22;11658;48.908;9.140;2023-04-03T17:48:55;5.50;99.90
22984;DHT22;11658;48.908;9.140;2023-04-03T17:51:23;5.40;99.90
22984;DHT22;11658;48.908;9.140;2023-04-03T17:53:49;5.40;99.90
22984;DHT22;11658;48.908;9.140;2023-04-03T17:56:17;5.30;99.90
22984;DHT22;11658;48.908;9.140;2023-04-03T17:58:45;5.30;99.90
22984;DHT22;11658;48.908;9.140;2023-04-03T18:01:13;5.20;99.90
22984;DHT22;11658;48.908;9.140;2023-04-03T18:03:40;5.20;99.90
22984;DHT22;11658;48.908;9.140;2023-04-03T18:06:09;5.30;99.90
22984;DHT22;11658;48.908;9.140;2023-04-03T18:08:39;5.30;99.90
22984;DHT22;11658;48.908;9.140;2023-04-03T18:11:05;5.20;99.90
22984;DHT22;11658;48.908;9.140;2023-04-03T18:13:31;5.20;99.90
22984;DHT22;11658;48.908;9.140;2023-04-03T18:15:57;5.10;99.90
22984;DHT22;11658;48.908;9.140;2023-04-03T18:18:22;5.00;99.90
22984;DHT22;11658;48.908;9.140;2023-04-03T18:20:48;4.90;99.90
22984;DHT22;11658;48.908;9.140;2023-04-03T18:23:15;4.80;99.90
22984;DHT22;11658;48.908;9.140;2023-04-03T18:25:41;4.80;99.90
22984;DHT22;11658;48.908;9.140;2023-04-03T18:28:06;4.70;99.90
22984;DHT22;11658;48.908;9.140;2023-04-03T18:30:33;4.60;99.90
22984;DHT22;11658;48.908;9.140;2023-04-03T18:32:59;4.50;99.90
22984;DHT22;11658;48.908;9.140;2023-04-03T18:37:51;4.40;99.90
22984;DHT22;11658;48.908;9.140;2023-04-03T18:40:16;4.30;99.90
22984;DHT22;11658;48.908;9.140;2023-04-03T18:42:43;4.30;99.90
22984;DHT22;11658;48.908;9.140;2023-04-03T18:45:10;4.20;99.90
22984;DHT22;11658;48.908;9.140;2023-04-03T18:47:37;4.10;99.90
22984;DHT22;11658;48.908;9.140;2023-04-03T18:50:06;4.10;99.90
22984;DHT22;11658;48.908;9.140;2023-04-03T18:52:32;4.00;99.90
22984;DHT22;11658;48.908;9.140;2023-04-03T18:54:58;4.00;99.90
22984;DHT22;11658;48.908;9.140;2023-04-03T18:57:24;3.90;99.90
22984;DHT22;11658;48.908;9.140;2023-04-03T18:59:51;3.90;99.90
22984;DHT22;11658;48.908;9.140;2023-04-03T19:02:17;3.90;99.90
22984;DHT22;11658;48.908;9.140;2023-04-03T19:04:46;3.80;99.90
22984;DHT22;11658;48.908;9.140;2023-04-03T19:07:12;3.80;99.90
22984;DHT22;11658;48.908;9.140;2023-04-03T19:09:37;3.70;99.90
22984;DHT22;11658;48.908;9.140;2023-04-03T19:12:04;3.60;99.90
22984;DHT22;11658;48.908;9.140;2023-04-03T19:14:30;3.70;99.90
22984;DHT22;11658;48.908;9.140;2023-04-03T19:16:56;3.60;99.90
22984;DHT22;11658;48.908;9.140;2023-04-03T19:19:22;3.60;99.90
22984;DHT22;11658;48.908;9.140;2023-04-03T19:21:47;3.60;99.90
22984;DHT22;11658;48.908;9.140;2023-04-03T19:24:13;3.70;99.90
22984;DHT22;11658;48.908;9.140;2023-04-03T19:26:40;3.50;99.90
22984;DHT22;11658;48.908;9.140;2023-04-03T19:29:06;3.50;99.90
22984;DHT22;11658;48.908;9.140;2023-04-03T19:33:58;3.40;99.90
22984;DHT22;11658;48.908;9.140;2023-04-03T19:36:24;3.40;99.90
22984;DHT22;11658;48.908;9.140;2023-04-03T19:38:50;3.50;99.90
22984;DHT22;11658;48.908;9.140;2023-04-03T19:41:21;3.50;99.90
22984;DHT22;11658;48.908;9.140;2023-04-03T19:43:50;3.40;99.90
22984;DHT22;11658;48.908;9.140;2023-04-03T19:46:16;3.40;99.90
22984;DHT22;11658;48.908;9.140;2023-04-03T19:48:45;3.40;99.90
22984;DHT22;11658;48.908;9.140;2023-04-03T19:51:12;3.30;99.90
22984;DHT22;11658;48.908;9.140;2023-04-03T19:53:37;3.60;99.90
22984;DHT22;11658;48.908;9.140;2023-04-03T19:56:03;3.20;99.90
22984;DHT22;11658;48.908;9.140;2023-04-03T19:58:29;3.10;99.90
22984;DHT22;11658;48.908;9.140;2023-04-03T20:00:56;3.30;99.90
22984;DHT22;11658;48.908;9.140;2023-04-03T20:05:48;3.60;99.90
22984;DHT22;11658;48.908;9.140;2023-04-03T20:08:13;3.50;99.90
22984;DHT22;11658;48.908;9.140;2023-04-03T20:10:39;3.10;99.90
22984;DHT22;11658;48.908;9.140;2023-04-03T20:13:06;3.20;99.90
22984;DHT22;11658;48.908;9.140;2023-04-03T20:15:35;3.20;99.90
22984;DHT22;11658;48.908;9.140;2023-04-03T20:18:10;3.20;99.90
22984;DHT22;11658;48.908;9.140;2023-04-03T20:20:37;3.10;99.90
22984;DHT22;11658;48.908;9.140;2023-04-03T20:23:10;3.50;99.90
22984;DHT22;11658;48.908;9.140;2023-04-03T20:25:44;3.30;99.90
22984;DHT22;11658;48.908;9.140;2023-04-03T20:28:11;3.10;99.90
22984;DHT22;11658;48.908;9.140;2023-04-03T20:30:38;3.10;99.90
22984;DHT22;11658;48.908;9.140;2023-04-03T20:33:04;3.00;99.90
22984;DHT22;11658;48.908;9.140;2023-04-03T20:35:33;3.10;99.90
22984;DHT22;11658;48.908;9.140;2023-04-03T20:37:59;3.30;99.90
22984;DHT22;11658;48.908;9.140;2023-04-03T20:40:25;3.10;99.90
22984;DHT22;11658;48.908;9.140;2023-04-03T20:42:55;3.00;99.90
22984;DHT22;11658;48.908;9.140;2023-04-03T20:45:21;3.00;99.90
22984;DHT22;11658;48.908;9.140;2023-04-03T20:47:47;3.00;99.90
22984;DHT22;11658;48.908;9.140;2023-04-03T20:50:15;2.80;99.90
22984;DHT22;11658;48.908;9.140;2023-04-03T20:52:40;2.80;99.90
22984;DHT22;11658;48.908;9.140;2023-04-03T20:55:06;2.70;99.90
22984;DHT22;11658;48.908;9.140;2023-04-03T20:57:33;2.80;99.90
22984;DHT22;11658;48.908;9.140;2023-04-03T20:59:59;2.60;99.90
22984;DHT22;11658;48.908;9.140;2023-04-03T21:02:30;2.60;99.90
22984;DHT22;11658;48.908;9.140;2023-04-03T21:04:58;2.60;99.90